Time;durP1;ratioP1;P1;durP2;ratioP2;P2;SDS_P1;SDS_P2;PMS_P1;PMS_P2;Temp;Humidity;BMP_temperature;BMP_pressure;BME280_temperature;BME280_humidity;BME280_pressure;Samples;Min_cycle;Max_cycle;Signal;HPM_P1;HPM_P2
2023/08/05 00:00:13;;;;;;;3.07;1.37;;;20.90;70.10;;;;;;6171057;23;20400;-73
2023/08/05 00:02:41;;;;;;;1.47;1.27;;;20.90;68.90;;;;;;6172611;23;20416;-73
2023/08/05 00:05:10;;;;;;;1.70;1.10;;;20.90;68.80;;;;;;6170297;23;20416;-74
2023/08/05 00:07:38;;;;;;;1.70;1.30;;;20.90;68.90;;;;;;6173397;23;20398;-74
2023/08/05 00:10:07;;;;;;;1.57;1.30;;;20.80;68.90;;;;;;6171109;23;20913;-73
2023/08/05 00:12:36;;;;;;;1.70;1.17;;;20.90;68.90;;;;;;6170740;23;20389;-74
2023/08/05 00:15:07;;;;;;;1.40;1.23;;;20.90;68.90;;;;;;6171648;23;20778;-73
2023/08/05 00:17:35;;;;;;;1.70;1.30;;;20.90;68.90;;;;;;6172218;23;20392;-74
2023/08/05 00:20:04;;;;;;;1.80;1.43;;;20.80;68.70;;;;;;6169635;23;20401;-73
2023/08/05 00:22:33;;;;;;;1.50;1.40;;;20.80;68.80;;;;;;6171522;23;20759;-74
2023/08/05 00:25:01;;;;;;;1.60;1.33;;;20.90;68.80;;;;;;6171710;23;20454;-74
2023/08/05 00:27:29;;;;;;;1.30;1.20;;;20.80;68.70;;;;;;6172068;23;20393;-73
2023/08/05 00:29:58;;;;;;;2.40;1.60;;;20.80;70.00;;;;;;6171788;23;20421;-73
2023/08/05 00:32:30;;;;;;;1.70;1.30;;;20.80;68.80;;;;;;6171586;23;20415;-73
2023/08/05 00:34:58;;;;;;;1.37;1.17;;;20.80;68.70;;;;;;6170625;23;20473;-73
2023/08/05 00:37:26;;;;;;;1.83;1.13;;;20.90;68.80;;;;;;6172813;23;20411;-74
2023/08/05 00:39:55;;;;;;;1.57;1.30;;;20.80;68.80;;;;;;6171827;23;20726;-73
2023/08/05 00:42:23;;;;;;;2.00;1.67;;;20.80;68.70;;;;;;6171093;23;20472;-74
2023/08/05 00:44:52;;;;;;;1.57;1.20;;;20.80;68.70;;;;;;6172751;23;20886;-74
2023/08/05 00:47:20;;;;;;;1.73;1.50;;;20.80;68.80;;;;;;6171064;23;20436;-72
2023/08/05 00:49:52;;;;;;;1.90;1.20;;;20.80;68.70;;;;;;6171079;23;20436;-73
2023/08/05 00:52:24;;;;;;;1.30;1.20;;;20.80;68.70;;;;;;6171651;23;20428;-73
2023/08/05 00:54:53;;;;;;;1.57;1.20;;;20.80;68.70;;;;;;6171390;23;20910;-73
2023/08/05 00:57:22;;;;;;;1.90;1.23;;;20.80;68.70;;;;;;6172011;23;20445;-74
2023/08/05 00:59:50;;;;;;;1.53;1.30;;;20.80;68.70;;;;;;6174986;23;20381;-74
2023/08/05 01:02:18;;;;;;;1.73;1.30;;;20.80;68.70;;;;;;6166994;23;20447;-74
2023/08/05 01:04:47;;;;;;;1.37;1.07;;;20.80;68.60;;;;;;6171933;23;20461;-74
2023/08/05 01:07:19;;;;;;;1.50;1.40;;;20.80;68.60;;;;;;6170768;23;20776;-74
2023/08/05 01:09:48;;;;;;;2.73;1.57;;;20.80;68.60;;;;;;6172716;23;20473;-74
2023/08/05 01:12:16;;;;;;;1.47;1.27;;;20.80;68.70;;;;;;6170083;23;20495;-74
2023/08/05 01:14:45;;;;;;;1.67;1.27;;;20.80;68.70;;;;;;6171563;23;20410;-74
2023/08/05 01:17:13;;;;;;;1.70;1.50;;;20.80;68.70;;;;;;6170821;23;20773;-74
2023/08/05 01:19:44;;;;;;;1.43;1.27;;;20.80;68.70;;;;;;6170796;23;20412;-73
2023/08/05 01:22:20;;;;;;;1.57;1.27;;;20.80;68.60;;;;;;6170616;23;20574;-74
2023/08/05 01:24:53;;;;;;;2.33;1.40;;;20.80;68.70;;;;;;6173334;23;20429;-74
2023/08/05 01:27:24;;;;;;;1.80;1.37;;;20.80;68.70;;;;;;6170368;23;20441;-74
2023/08/05 01:29:53;;;;;;;1.70;1.10;;;20.80;68.60;;;;;;6171983;23;20800;-74
2023/08/05 01:32:21;;;;;;;2.27;1.70;;;20.80;68.60;;;;;;6170061;23;20440;-73
2023/08/05 01:34:50;;;;;;;1.57;1.27;;;20.80;68.60;;;;;;6171648;23;20397;-74
2023/08/05 01:37:19;;;;;;;1.80;1.20;;;20.80;68.60;;;;;;6171132;23;20791;-74
2023/08/05 01:39:49;;;;;;;1.27;1.10;;;20.80;68.70;;;;;;6172097;23;20473;-74
2023/08/05 01:42:17;;;;;;;1.60;1.30;;;20.80;68.70;;;;;;6170951;22;20506;-74
2023/08/05 01:44:47;;;;;;;2.10;1.73;;;20.80;68.60;;;;;;6170668;23;20419;-74
2023/08/05 01:47:17;;;;;;;1.80;1.47;;;20.80;68.60;;;;;;6170669;23;20437;-74
2023/08/05 01:49:46;;;;;;;1.70;1.23;;;20.80;68.60;;;;;;6170717;23;20395;-74
2023/08/05 01:52:14;;;;;;;1.57;1.17;;;20.70;68.60;;;;;;6169527;23;20512;-73
2023/08/05 01:54:43;;;;;;;1.20;1.00;;;20.70;68.60;;;;;;6171434;23;20921;-74
2023/08/05 01:57:11;;;;;;;1.40;1.10;;;20.70;68.50;;;;;;6169531;23;20436;-74
2023/08/05 01:59:40;;;;;;;2.40;1.57;;;20.70;68.50;;;;;;6170426;23;20400;-74
2023/08/05 02:02:10;;;;;;;2.23;1.23;;;20.70;68.50;;;;;;6172781;23;20429;-74
2023/08/05 02:04:38;;;;;;;2.00;1.30;;;20.70;68.40;;;;;;6174462;23;20422;-74
2023/08/05 02:07:07;;;;;;;1.67;1.10;;;20.70;68.40;;;;;;6173745;23;20428;-74
2023/08/05 02:09:35;;;;;;;1.30;1.20;;;20.70;68.40;;;;;;6176687;23;20916;-73
2023/08/05 02:12:04;;;;;;;1.40;1.20;;;20.70;68.50;;;;;;6172870;23;20434;-74
2023/08/05 02:14:32;;;;;;;1.50;1.37;;;20.70;68.40;;;;;;6175279;23;20428;-74
2023/08/05 02:17:01;;;;;;;1.57;1.30;;;20.70;68.40;;;;;;6174104;23;20438;-73
2023/08/05 02:19:31;;;;;;;1.70;1.47;;;20.70;68.40;;;;;;6173919;23;20856;-74
2023/08/05 02:21:59;;;;;;;1.60;1.17;;;20.70;68.40;;;;;;6173325;23;20779;-74
2023/08/05 02:24:28;;;;;;;1.70;1.60;;;20.70;68.40;;;;;;6174887;23;20496;-74
2023/08/05 02:26:56;;;;;;;1.60;1.23;;;20.70;68.40;;;;;;6175523;22;20420;-73
2023/08/05 02:29:24;;;;;;;1.40;1.00;;;20.70;68.40;;;;;;6174727;23;20888;-73
2023/08/05 02:31:53;;;;;;;1.80;1.57;;;20.70;68.40;;;;;;6173215;23;20428;-73
2023/08/05 02:34:22;;;;;;;1.83;1.40;;;20.70;68.40;;;;;;6173403;23;20470;-74
2023/08/05 02:36:52;;;;;;;1.37;1.10;;;20.70;68.40;;;;;;6173508;23;20443;-74
2023/08/05 02:39:20;;;;;;;3.30;1.50;;;20.70;68.40;;;;;;6175175;23;20400;-73
2023/08/05 02:41:49;;;;;;;1.67;1.20;;;20.70;68.40;;;;;;6173136;23;20512;-74
2023/08/05 02:44:17;;;;;;;4.43;1.70;;;20.70;68.40;;;;;;6175731;23;20439;-73
2023/08/05 02:46:45;;;;;;;1.40;1.30;;;20.70;68.40;;;;;;6173612;23;20485;-74
2023/08/05 02:49:15;;;;;;;1.50;1.07;;;20.70;68.40;;;;;;6173789;23;20385;-74
2023/08/05 02:51:43;;;;;;;1.90;1.50;;;20.60;68.30;;;;;;6173613;23;20750;-74
2023/08/05 02:54:13;;;;;;;1.97;1.30;;;20.70;68.40;;;;;;6174936;23;20431;-74
2023/08/05 02:56:41;;;;;;;1.80;1.33;;;20.70;68.30;;;;;;6174349;23;20428;-74
2023/08/05 02:59:10;;;;;;;1.30;1.10;;;20.70;68.30;;;;;;6176421;23;20401;-73
2023/08/05 03:01:38;;;;;;;3.40;1.33;;;20.70;68.30;;;;;;6173439;23;20445;-74
2023/08/05 03:04:08;;;;;;;1.60;1.40;;;20.70;68.40;;;;;;6171485;23;20474;-73
2023/08/05 03:06:36;;;;;;;1.43;1.33;;;20.70;68.30;;;;;;6172045;23;20905;-74
2023/08/05 03:09:04;;;;;;;1.77;1.20;;;20.60;68.20;;;;;;6171082;23;20401;-74
2023/08/05 03:11:34;;;;;;;1.47;1.37;;;20.60;68.20;;;;;;6170647;23;20433;-74
2023/08/05 03:14:03;;;;;;;1.20;0.90;;;20.60;68.20;;;;;;6170557;23;20800;-73
2023/08/05 03:16:32;;;;;;;1.43;1.23;;;20.70;68.40;;;;;;6170278;23;20437;-73
2023/08/05 03:19:08;;;;;;;1.50;1.23;;;20.60;68.20;;;;;;6169090;23;20492;-73
2023/08/05 03:21:37;;;;;;;1.40;0.97;;;20.70;68.30;;;;;;6170836;22;20441;-73
2023/08/05 03:24:05;;;;;;;1.50;1.30;;;20.60;68.20;;;;;;6170545;23;20986;-74
2023/08/05 03:26:38;;;;;;;1.50;1.10;;;20.60;68.20;;;;;;6170608;23;20463;-74
2023/08/05 03:29:09;;;;;;;1.57;1.37;;;20.60;68.20;;;;;;6171059;23;20373;-74
2023/08/05 03:31:39;;;;;;;1.20;1.07;;;20.60;68.10;;;;;;6170021;23;20990;-74
2023/08/05 03:34:08;;;;;;;1.67;1.43;;;20.60;68.10;;;;;;6170227;23;20403;-74
2023/08/05 03:36:37;;;;;;;1.70;1.13;;;20.60;68.20;;;;;;6170820;23;20457;-74
2023/08/05 03:39:06;;;;;;;2.03;1.50;;;20.60;68.20;;;;;;6171234;23;20416;-74
2023/08/05 03:41:35;;;;;;;1.40;1.10;;;20.60;68.20;;;;;;6146542;23;20444;-73
2023/08/05 03:44:05;;;;;;;1.33;1.20;;;20.60;68.10;;;;;;6171198;23;20421;-74
2023/08/05 03:46:33;;;;;;;1.53;1.13;;;20.60;68.10;;;;;;6171533;23;20437;-74
2023/08/05 03:49:02;;;;;;;1.80;1.10;;;20.60;68.10;;;;;;6171658;23;20389;-73
2023/08/05 03:51:31;;;;;;;2.63;1.37;;;20.60;68.10;;;;;;6171558;23;20433;-74
2023/08/05 03:54:03;;;;;;;1.40;1.20;;;20.60;68.00;;;;;;6172398;23;20776;-73
2023/08/05 03:56:32;;;;;;;1.30;1.10;;;20.60;68.00;;;;;;6171139;23;20440;-73
2023/08/05 03:59:02;;;;;;;4.83;1.60;;;20.60;68.00;;;;;;6172374;22;20397;-73
2023/08/05 04:01:34;;;;;;;2.03;1.30;;;20.60;68.00;;;;;;6170754;23;20470;-73
2023/08/05 04:04:03;;;;;;;2.33;1.43;;;20.50;67.90;;;;;;6171293;23;20465;-73
2023/08/05 04:06:32;;;;;;;2.00;1.33;;;20.60;67.90;;;;;;6171957;23;20429;-74
2023/08/05 04:09:00;;;;;;;2.00;1.13;;;20.60;67.90;;;;;;6172994;23;20738;-73
2023/08/05 04:11:32;;;;;;;2.40;1.47;;;20.50;67.90;;;;;;6171332;23;21197;-74
2023/08/05 04:14:03;;;;;;;2.60;1.60;;;20.50;67.80;;;;;;6171109;23;20373;-74
2023/08/05 04:16:34;;;;;;;1.97;1.30;;;20.60;68.00;;;;;;6171417;23;20440;-73
2023/08/05 04:19:03;;;;;;;1.53;1.17;;;20.60;68.00;;;;;;6171576;23;20385;-73
2023/08/05 04:21:39;;;;;;;1.97;1.30;;;20.60;68.00;;;;;;6171774;23;20826;-73
2023/08/05 04:24:09;;;;;;;2.13;1.33;;;20.50;67.90;;;;;;6172146;23;20459;-74
2023/08/05 04:26:37;;;;;;;2.03;1.30;;;20.50;67.90;;;;;;6170867;23;20429;-73
2023/08/05 04:29:05;;;;;;;1.70;1.37;;;20.50;67.90;;;;;;6172085;23;20383;-74
2023/08/05 04:31:37;;;;;;;1.97;1.40;;;20.50;67.90;;;;;;6170608;23;20842;-73
2023/08/05 04:34:05;;;;;;;1.57;1.37;;;20.60;68.00;;;;;;6171066;23;20497;-73
2023/08/05 04:36:34;;;;;;;2.03;1.30;;;20.50;67.90;;;;;;6171656;23;20452;-73
2023/08/05 04:39:03;;;;;;;1.90;1.53;;;20.50;67.80;;;;;;6172211;23;20875;-73
2023/08/05 04:41:32;;;;;;;1.60;1.40;;;20.50;67.80;;;;;;6170773;23;20913;-73
2023/08/05 04:44:00;;;;;;;1.90;1.40;;;20.50;67.80;;;;;;6170285;23;20424;-74
2023/08/05 04:46:28;;;;;;;1.50;1.10;;;20.50;67.90;;;;;;6171514;23;20899;-74
2023/08/05 04:48:59;;;;;;;1.50;1.20;;;20.50;67.80;;;;;;6146898;23;20737;-74
2023/08/05 04:51:27;;;;;;;1.40;1.20;;;20.50;67.80;;;;;;6171004;23;20424;-74
2023/08/05 04:53:55;;;;;;;1.57;1.40;;;20.50;67.90;;;;;;6173285;23;20395;-74
2023/08/05 04:56:25;;;;;;;1.40;1.13;;;20.50;67.90;;;;;;6172073;23;20438;-74
2023/08/05 04:58:53;;;;;;;1.70;1.03;;;20.50;67.90;;;;;;6173797;23;20702;-74
2023/08/05 05:01:21;;;;;;;2.00;1.50;;;20.50;67.90;;;;;;6173267;22;20439;-74
2023/08/05 05:03:51;;;;;;;1.63;1.40;;;20.50;67.90;;;;;;6171026;23;20396;-74
2023/08/05 05:06:21;;;;;;;1.50;1.40;;;20.50;67.80;;;;;;6171016;23;20440;-74
2023/08/05 05:08:49;;;;;;;1.60;1.13;;;20.50;67.80;;;;;;6172281;23;21048;-74
2023/08/05 05:11:18;;;;;;;1.77;1.40;;;20.40;67.70;;;;;;6171187;23;20443;-73
2023/08/05 05:13:50;;;;;;;1.47;1.20;;;20.40;67.70;;;;;;6172460;23;20399;-74
2023/08/05 05:16:21;;;;;;;1.60;1.30;;;20.50;67.90;;;;;;6171657;23;20782;-74
2023/08/05 05:18:50;;;;;;;2.63;1.30;;;20.50;67.80;;;;;;6171267;23;20855;-74
2023/08/05 05:21:18;;;;;;;1.70;1.13;;;20.50;67.80;;;;;;6170776;23;20441;-73
2023/08/05 05:23:48;;;;;;;2.10;1.50;;;20.50;67.80;;;;;;6171831;23;20399;-73
2023/08/05 05:26:16;;;;;;;1.53;1.23;;;20.40;67.60;;;;;;6172347;22;20905;-74
2023/08/05 05:28:45;;;;;;;2.20;1.57;;;20.40;67.70;;;;;;6171866;23;20446;-74
2023/08/05 05:31:13;;;;;;;3.30;2.70;;;20.40;67.60;;;;;;6171116;23;20491;-74
2023/08/05 05:33:45;;;;;;;3.13;2.80;;;20.40;67.60;;;;;;6145452;22;20401;-74
2023/08/05 05:36:13;;;;;;;2.60;2.20;;;20.40;67.60;;;;;;6170710;23;20449;-73
2023/08/05 05:38:42;;;;;;;3.17;2.83;;;20.40;67.70;;;;;;6172404;23;20393;-73
2023/08/05 05:41:11;;;;;;;2.73;2.40;;;20.40;67.70;;;;;;6170783;23;20442;-74
2023/08/05 05:43:40;;;;;;;3.50;3.20;;;20.40;67.70;;;;;;6171552;23;20453;-73
2023/08/05 05:46:08;;;;;;;2.53;2.20;;;20.30;67.60;;;;;;6172687;23;20454;-74
2023/08/05 05:48:37;;;;;;;2.53;2.33;;;20.30;67.80;;;;;;6171101;23;20366;-74
2023/08/05 05:51:05;;;;;;;2.00;1.60;;;20.30;67.80;;;;;;6170974;23;20938;-74
2023/08/05 05:53:33;;;;;;;3.07;2.23;;;20.30;67.80;;;;;;6173087;23;20415;-74
2023/08/05 05:56:02;;;;;;;1.93;1.73;;;20.30;67.80;;;;;;6172731;23;20484;-73
2023/08/05 05:58:34;;;;;;;2.77;2.00;;;20.30;67.80;;;;;;6169186;23;20897;-73
2023/08/05 06:01:03;;;;;;;2.10;1.63;;;20.30;67.70;;;;;;6172505;23;20468;-73
2023/08/05 06:03:33;;;;;;;3.30;2.27;;;20.30;67.70;;;;;;6170005;23;20393;-73
2023/08/05 06:06:02;;;;;;;3.10;2.40;;;20.30;67.70;;;;;;6171539;23;20421;-73
2023/08/05 06:08:31;;;;;;;2.90;2.60;;;20.30;67.70;;;;;;6171125;23;20466;-73
2023/08/05 06:11:02;;;;;;;2.00;1.70;;;20.30;67.70;;;;;;6170303;23;20381;-74
2023/08/05 06:13:32;;;;;;;2.87;2.60;;;20.30;67.70;;;;;;6171314;23;20458;-73
2023/08/05 06:16:00;;;;;;;1.90;1.60;;;20.30;67.60;;;;;;6172411;23;20411;-74
2023/08/05 06:18:29;;;;;;;2.23;2.03;;;20.30;67.70;;;;;;6169731;23;20787;-73
2023/08/05 06:20:58;;;;;;;2.13;1.93;;;20.30;67.70;;;;;;6168750;22;20442;-73
2023/08/05 06:23:26;;;;;;;2.50;2.30;;;20.30;67.60;;;;;;6170903;23;20393;-74
2023/08/05 06:25:54;;;;;;;3.00;2.70;;;20.30;67.60;;;;;;6170547;23;20439;-74
2023/08/05 06:28:23;;;;;;;2.07;1.83;;;20.30;67.70;;;;;;6171599;23;20398;-73
2023/08/05 06:30:56;;;;;;;3.47;2.70;;;20.30;67.70;;;;;;6170654;23;20972;-73
2023/08/05 06:33:24;;;;;;;2.30;1.90;;;20.30;67.80;;;;;;6170567;23;20378;-73
2023/08/05 06:35:52;;;;;;;2.20;1.93;;;20.30;67.60;;;;;;6173749;23;20772;-74
2023/08/05 06:38:21;;;;;;;2.83;2.63;;;20.30;67.80;;;;;;6171526;23;20724;-74
2023/08/05 06:40:51;;;;;;;2.80;1.97;;;20.30;67.80;;;;;;6171782;23;20437;-74
2023/08/05 06:43:19;;;;;;;4.20;3.80;;;20.30;67.80;;;;;;6168878;23;20395;-73
2023/08/05 06:45:48;;;;;;;6.80;5.40;;;20.30;67.80;;;;;;6170947;23;20189;-74
2023/08/05 06:48:17;;;;;;;5.87;4.40;;;20.30;67.90;;;;;;6170887;23;20389;-74
2023/08/05 06:50:46;;;;;;;3.20;2.90;;;20.30;67.90;;;;;;6170065;23;20507;-73
2023/08/05 06:53:14;;;;;;;4.80;3.97;;;20.30;67.80;;;;;;6146059;23;20398;-74
2023/08/05 06:55:42;;;;;;;4.03;3.53;;;20.30;67.60;;;;;;6171139;23;20416;-73
2023/08/05 06:58:11;;;;;;;3.80;2.80;;;20.30;67.70;;;;;;6171495;23;20409;-74
2023/08/05 07:00:40;;;;;;;4.50;3.57;;;20.30;67.70;;;;;;6172697;23;20437;-73
2023/08/05 07:03:08;;;;;;;4.30;3.90;;;20.30;67.70;;;;;;6171384;23;20716;-74
2023/08/05 07:05:38;;;;;;;4.10;3.70;;;20.30;67.80;;;;;;6170934;23;20539;-73
2023/08/05 07:08:06;;;;;;;3.77;2.97;;;20.30;67.90;;;;;;6171231;23;20397;-74
2023/08/05 07:10:35;;;;;;;4.53;3.80;;;20.30;68.00;;;;;;6170212;23;20438;-74
2023/08/05 07:13:05;;;;;;;3.57;3.27;;;20.30;68.00;;;;;;6171187;23;20440;-74
2023/08/05 07:15:36;;;;;;;5.83;2.97;;;20.30;67.80;;;;;;6171611;23;20413;-74
2023/08/05 07:18:05;;;;;;;2.77;2.53;;;20.30;68.00;;;;;;6171832;23;20380;-74
2023/08/05 07:20:33;;;;;;;4.13;2.40;;;20.30;67.80;;;;;;6145309;22;20440;-73
2023/08/05 07:23:03;;;;;;;2.10;1.90;;;20.30;67.80;;;;;;6173128;23;20404;-74
2023/08/05 07:25:31;;;;;;;2.23;2.00;;;20.30;67.80;;;;;;6172617;23;20429;-74
2023/08/05 07:28:00;;;;;;;2.60;2.30;;;20.30;67.70;;;;;;6171546;23;20726;-74
2023/08/05 07:30:28;;;;;;;2.97;2.67;;;20.30;67.60;;;;;;6172286;23;20444;-74
2023/08/05 07:32:56;;;;;;;2.63;2.23;;;20.30;67.50;;;;;;6171601;23;20396;-74
2023/08/05 07:35:28;;;;;;;3.00;2.70;;;20.30;67.50;;;;;;6171063;23;20420;-74
2023/08/05 07:37:56;;;;;;;2.40;1.93;;;20.30;67.40;;;;;;6171979;23;20379;-74
2023/08/05 07:40:26;;;;;;;2.40;2.20;;;20.30;67.40;;;;;;6169561;23;20430;-73
2023/08/05 07:42:54;;;;;;;3.20;2.87;;;20.40;67.40;;;;;;6170762;23;20728;-74
2023/08/05 07:45:23;;;;;;;2.60;2.40;;;20.40;67.30;;;;;;6171053;23;20424;-74
2023/08/05 07:47:51;;;;;;;2.60;2.13;;;20.30;67.30;;;;;;6172653;23;20405;-74
2023/08/05 07:50:22;;;;;;;2.33;2.00;;;20.30;67.20;;;;;;6170422;23;20499;-73
2023/08/05 07:52:53;;;;;;;3.20;2.83;;;20.40;67.30;;;;;;6171204;23;20394;-74
2023/08/05 07:55:22;;;;;;;2.60;2.30;;;20.30;67.10;;;;;;6171614;23;20412;-74
2023/08/05 07:57:52;;;;;;;3.00;2.17;;;20.40;67.20;;;;;;6173282;23;20397;-73
2023/08/05 08:00:21;;;;;;;2.93;2.43;;;20.30;67.10;;;;;;6172055;23;20390;-73
2023/08/05 08:02:50;;;;;;;2.67;2.20;;;20.30;67.00;;;;;;6170949;23;20444;-74
2023/08/05 08:05:19;;;;;;;2.40;2.20;;;20.40;67.10;;;;;;6169077;23;20428;-73
2023/08/05 08:07:49;;;;;;;3.20;2.23;;;20.40;67.10;;;;;;6170271;23;20467;-73
2023/08/05 08:10:20;;;;;;;2.60;2.40;;;20.40;67.10;;;;;;6174480;23;20666;-73
2023/08/05 08:12:48;;;;;;;3.03;2.47;;;20.40;67.00;;;;;;6171435;23;20756;-74
2023/08/05 08:15:18;;;;;;;2.33;2.13;;;20.40;67.00;;;;;;6172141;23;20435;-73
2023/08/05 08:17:47;;;;;;;2.53;2.33;;;20.40;67.00;;;;;;6172825;23;20385;-73
2023/08/05 08:20:15;;;;;;;2.27;2.07;;;20.30;66.90;;;;;;6170336;23;20783;-73
2023/08/05 08:22:44;;;;;;;2.40;2.20;;;20.30;66.90;;;;;;6172730;23;20867;-73
2023/08/05 08:25:12;;;;;;;2.30;2.07;;;20.40;67.00;;;;;;6172528;23;20708;-73
2023/08/05 08:27:40;;;;;;;2.60;2.03;;;20.40;67.10;;;;;;6172560;23;20426;-74
2023/08/05 08:30:11;;;;;;;2.20;2.00;;;20.40;66.90;;;;;;6173169;23;20879;-74
2023/08/05 08:32:41;;;;;;;2.73;2.20;;;20.40;66.90;;;;;;6170578;23;20871;-73
2023/08/05 08:35:09;;;;;;;2.70;2.40;;;20.40;66.90;;;;;;6171354;23;20484;-73
2023/08/05 08:37:41;;;;;;;2.00;1.80;;;20.40;66.90;;;;;;6172058;22;20448;-73
2023/08/05 08:40:11;;;;;;;2.60;2.33;;;20.40;66.90;;;;;;6172923;23;20383;-74
2023/08/05 08:42:40;;;;;;;2.73;2.40;;;20.40;67.00;;;;;;6170459;23;20420;-73
2023/08/05 08:45:10;;;;;;;2.67;2.47;;;20.40;67.10;;;;;;6172234;23;20444;-73
2023/08/05 08:47:39;;;;;;;2.30;2.10;;;20.40;67.00;;;;;;6171395;23;20495;-73
2023/08/05 08:50:10;;;;;;;3.37;2.10;;;20.30;68.20;;;;;;6170509;23;20891;-74
2023/08/05 08:52:41;;;;;;;2.27;2.03;;;20.30;66.90;;;;;;6170867;23;20414;-73
2023/08/05 08:55:10;;;;;;;2.20;2.00;;;20.40;66.90;;;;;;6171565;23;20666;-73
2023/08/05 08:57:38;;;;;;;2.43;2.23;;;20.30;67.70;;;;;;6170000;23;20979;-74
2023/08/05 09:00:08;;;;;;;2.50;2.30;;;20.40;67.00;;;;;;6170879;23;20412;-74
2023/08/05 09:02:37;;;;;;;2.13;1.93;;;20.30;66.90;;;;;;6170108;23;20886;-73
2023/08/05 09:05:08;;;;;;;2.83;2.40;;;20.30;66.80;;;;;;6170337;23;20421;-73
2023/08/05 09:07:38;;;;;;;3.23;2.70;;;20.30;67.00;;;;;;6169670;23;20445;-73
2023/08/05 09:10:08;;;;;;;2.40;2.20;;;20.30;66.90;;;;;;6171394;23;20589;-73
2023/08/05 09:12:37;;;;;;;2.20;2.00;;;20.30;66.90;;;;;;6169508;23;20474;-73
2023/08/05 09:15:07;;;;;;;2.33;2.13;;;20.30;66.90;;;;;;6170322;23;20612;-73
2023/08/05 09:17:39;;;;;;;2.37;2.17;;;20.30;66.80;;;;;;6170319;23;20742;-74
2023/08/05 09:20:20;;;;;;;2.40;2.20;;;20.30;66.80;;;;;;6169370;23;20515;-73
2023/08/05 09:22:56;;;;;;;3.00;2.10;;;20.40;66.70;;;;;;6168344;23;20979;-73
2023/08/05 09:25:24;;;;;;;2.80;2.00;;;20.40;66.50;;;;;;6172830;23;20410;-74
2023/08/05 09:27:53;;;;;;;3.43;1.90;;;20.40;66.40;;;;;;6170195;23;20435;-73
2023/08/05 09:30:23;;;;;;;2.40;2.20;;;20.40;66.10;;;;;;6170678;23;20394;-74
2023/08/05 09:32:52;;;;;;;2.70;2.30;;;20.40;66.00;;;;;;6169135;23;20462;-73
2023/08/05 09:35:24;;;;;;;2.90;2.23;;;20.50;65.60;;;;;;6169713;23;20417;-73
2023/08/05 09:37:54;;;;;;;2.30;2.00;;;20.50;65.60;;;;;;6171923;23;20388;-73
2023/08/05 09:40:28;;;;;;;2.53;2.33;;;20.40;65.60;;;;;;6145063;23;20457;-73
2023/08/05 09:42:59;;;;;;;3.03;1.83;;;20.40;65.70;;;;;;6171789;23;20894;-73
2023/08/05 09:45:30;;;;;;;2.60;2.17;;;20.40;65.80;;;;;;6171570;23;20417;-74
2023/08/05 09:48:03;;;;;;;3.43;2.50;;;20.40;65.80;;;;;;6170744;23;20432;-73
2023/08/05 09:50:37;;;;;;;2.37;2.17;;;20.40;65.90;;;;;;6169166;23;20758;-73
2023/08/05 09:53:07;;;;;;;3.30;2.40;;;20.40;65.90;;;;;;6169839;23;20409;-73
2023/08/05 09:55:38;;;;;;;3.40;1.93;;;20.30;65.90;;;;;;6171365;23;20424;-74
2023/08/05 09:58:08;;;;;;;2.47;2.27;;;20.30;66.00;;;;;;6173367;23;20390;-74
2023/08/05 10:00:40;;;;;;;2.93;2.10;;;20.40;66.10;;;;;;6172790;23;20383;-73
2023/08/05 10:03:13;;;;;;;2.10;1.90;;;20.40;66.10;;;;;;6170582;23;20438;-73
2023/08/05 10:05:44;;;;;;;2.17;1.97;;;20.40;66.10;;;;;;6171888;23;20406;-73
2023/08/05 10:08:14;;;;;;;2.87;2.00;;;20.40;66.20;;;;;;6170719;23;20443;-74
2023/08/05 10:10:43;;;;;;;2.27;1.70;;;20.40;66.20;;;;;;6170322;23;20925;-73
2023/08/05 10:13:17;;;;;;;3.10;2.00;;;20.30;66.00;;;;;;6170173;23;20378;-73
2023/08/05 10:15:48;;;;;;;2.03;1.80;;;20.40;64.20;;;;;;6171268;23;20423;-73
2023/08/05 10:18:18;;;;;;;8.33;3.53;;;20.40;65.70;;;;;;6171803;23;20375;-73
2023/08/05 10:20:52;;;;;;;17.83;9.47;;;20.40;64.30;;;;;;6170919;23;20515;-73
2023/08/05 10:23:25;;;;;;;3.70;2.00;;;20.40;64.20;;;;;;6171764;23;20383;-73
2023/08/05 10:26:00;;;;;;;2.67;2.20;;;20.40;64.10;;;;;;6171078;23;20482;-73
2023/08/05 10:28:44;;;;;;;2.23;1.90;;;20.40;64.30;;;;;;6171897;23;21090;-73
2023/08/05 10:31:27;;;;;;;2.03;1.80;;;20.40;63.50;;;;;;6170754;23;20436;-73
2023/08/05 10:34:09;;;;;;;3.17;2.33;;;20.40;64.20;;;;;;6169818;23;20378;-73
2023/08/05 10:36:46;;;;;;;3.20;2.07;;;20.40;64.30;;;;;;6169945;23;20816;-73
2023/08/05 10:39:42;;;;;;;2.70;2.50;;;20.40;64.20;;;;;;6170679;23;20864;-73
2023/08/05 10:42:36;;;;;;;2.40;2.20;;;20.40;64.10;;;;;;6171429;22;20452;-73
2023/08/05 10:45:06;;;;;;;2.37;1.90;;;20.40;63.80;;;;;;6171009;23;20500;-73
2023/08/05 10:47:34;;;;;;;4.13;2.27;;;20.40;64.20;;;;;;6169442;23;20449;-73
2023/08/05 10:50:03;;;;;;;2.97;2.40;;;20.40;64.20;;;;;;6169775;23;20528;-73
2023/08/05 10:52:37;;;;;;;3.00;2.30;;;20.40;64.20;;;;;;6168938;23;20491;-73
2023/08/05 10:55:12;;;;;;;2.30;2.10;;;20.40;64.20;;;;;;6170365;23;20418;-73
2023/08/05 10:57:47;;;;;;;2.93;2.63;;;20.50;63.50;;;;;;6171877;23;20855;-73
2023/08/05 11:00:21;;;;;;;2.30;2.10;;;20.50;64.10;;;;;;6171611;23;20785;-73
2023/08/05 11:03:10;;;;;;;2.70;2.27;;;20.50;64.30;;;;;;6172202;23;20722;-73
2023/08/05 11:05:40;;;;;;;3.10;2.80;;;20.50;64.30;;;;;;6170199;23;20439;-73
2023/08/05 11:08:09;;;;;;;2.30;2.00;;;20.50;63.20;;;;;;6169203;23;20481;-73
2023/08/05 11:10:38;;;;;;;2.77;2.10;;;20.40;64.20;;;;;;6171222;23;20451;-72
2023/08/05 11:13:08;;;;;;;3.03;1.93;;;20.50;64.40;;;;;;6171508;23;20407;-73
2023/08/05 11:15:41;;;;;;;2.90;2.03;;;20.50;64.40;;;;;;6169176;23;20917;-73
2023/08/05 11:18:09;;;;;;;3.50;1.90;;;20.60;64.50;;;;;;6170389;23;20467;-74
2023/08/05 11:20:39;;;;;;;2.53;2.13;;;20.60;62.40;;;;;;6169147;23;20470;-74
2023/08/05 11:23:09;;;;;;;2.43;2.23;;;20.60;63.90;;;;;;6170171;23;21005;-73
2023/08/05 11:25:38;;;;;;;2.50;2.30;;;20.70;62.60;;;;;;6170089;23;20983;-73
2023/08/05 11:28:07;;;;;;;2.10;1.90;;;20.80;62.80;;;;;;6170675;23;20468;-73
2023/08/05 11:30:40;;;;;;;2.53;1.80;;;20.80;62.80;;;;;;6170329;23;20454;-73
2023/08/05 11:33:08;;;;;;;2.27;1.73;;;20.80;62.70;;;;;;6169405;23;20435;-68
2023/08/05 11:35:43;;;;;;;3.17;2.20;;;20.80;62.10;;;;;;6169934;23;20772;-68
2023/08/05 11:38:15;;;;;;;2.40;1.90;;;20.80;60.60;;;;;;6146003;22;20397;-67
2023/08/05 11:40:45;;;;;;;3.13;2.53;;;20.80;59.80;;;;;;6170360;23;20384;-68
2023/08/05 11:43:14;;;;;;;2.37;2.17;;;20.90;60.60;;;;;;6170127;23;20396;-67
2023/08/05 11:45:43;;;;;;;2.07;1.80;;;20.90;59.60;;;;;;6144232;23;20495;-67
2023/08/05 11:48:22;;;;;;;3.70;2.10;;;20.80;60.70;;;;;;6169661;23;20423;-67
2023/08/05 11:50:52;;;;;;;3.37;1.97;;;20.80;60.90;;;;;;6170173;23;20384;-67
2023/08/05 11:53:22;;;;;;;2.73;2.40;;;20.80;61.40;;;;;;6169980;23;20431;-68
2023/08/05 11:55:50;;;;;;;2.40;2.13;;;20.70;62.20;;;;;;6170765;23;20497;-68
2023/08/05 11:58:19;;;;;;;2.27;1.90;;;20.70;62.60;;;;;;6170199;23;20396;-68
2023/08/05 12:00:49;;;;;;;2.30;2.07;;;20.60;62.80;;;;;;6172533;23;20393;-68
2023/08/05 12:03:17;;;;;;;2.40;2.20;;;20.60;63.10;;;;;;6145618;23;20416;-68
2023/08/05 12:05:46;;;;;;;2.30;2.00;;;20.50;63.50;;;;;;6170855;23;20487;-68
2023/08/05 12:08:41;;;;;;;2.63;1.83;;;20.60;63.90;;;;;;6170526;23;20420;-68
2023/08/05 12:11:11;;;;;;;2.53;2.10;;;20.50;64.10;;;;;;6170645;23;20635;-68
2023/08/05 12:13:40;;;;;;;1.83;1.53;;;20.50;64.30;;;;;;6170165;23;20393;-68
2023/08/05 12:16:16;;;;;;;2.63;2.43;;;20.50;64.30;;;;;;6171091;23;20497;-68
2023/08/05 12:18:45;;;;;;;2.80;2.60;;;20.50;64.30;;;;;;6170810;23;20405;-68
2023/08/05 12:21:14;;;;;;;3.43;2.50;;;20.50;64.30;;;;;;6171643;22;20919;-68
2023/08/05 12:23:44;;;;;;;2.50;2.10;;;20.50;64.30;;;;;;6171157;23;20405;-68
2023/08/05 12:26:15;;;;;;;2.20;2.00;;;20.50;64.50;;;;;;6170186;23;20512;-68
2023/08/05 12:28:44;;;;;;;2.60;1.90;;;20.50;64.30;;;;;;6171632;23;20800;-68
2023/08/05 12:31:13;;;;;;;2.67;2.03;;;20.50;64.30;;;;;;6169609;23;20432;-68
2023/08/05 12:33:41;;;;;;;2.10;1.90;;;20.50;64.30;;;;;;6169558;23;20407;-68
2023/08/05 12:36:10;;;;;;;2.23;2.03;;;20.50;64.30;;;;;;6171928;23;20416;-68
2023/08/05 12:38:39;;;;;;;4.00;1.93;;;20.50;64.30;;;;;;6170784;23;20408;-68
2023/08/05 12:41:08;;;;;;;2.80;2.37;;;20.50;64.30;;;;;;6170590;23;20745;-68
2023/08/05 12:43:37;;;;;;;2.53;2.13;;;20.50;64.30;;;;;;6170687;23;20392;-68
2023/08/05 12:46:05;;;;;;;2.67;2.17;;;20.50;64.30;;;;;;6171461;23;20410;-68
2023/08/05 12:48:34;;;;;;;3.67;2.30;;;20.50;64.40;;;;;;6170130;23;20921;-68
2023/08/05 12:51:02;;;;;;;2.80;2.33;;;20.50;64.30;;;;;;6171143;23;20441;-68
2023/08/05 12:53:30;;;;;;;2.30;2.10;;;20.50;64.30;;;;;;6171365;23;20779;-68
2023/08/05 12:55:59;;;;;;;2.13;1.93;;;20.50;64.40;;;;;;6171459;23;20845;-69
2023/08/05 12:58:28;;;;;;;3.23;2.07;;;20.50;64.30;;;;;;6171807;23;20398;-68
2023/08/05 13:00:57;;;;;;;2.30;1.97;;;20.50;64.30;;;;;;6169089;23;20439;-68